sensor_id;sensor_type;location;lat;lon;timestamp;P1;durP1;ratioP1;P2;durP2;ratioP2
18194;SDS011;9223;50.988;3.162;2023-01-01T00:00:04;4.82;;;2.42;;
18194;SDS011;9223;50.988;3.162;2023-01-01T00:06:10;5.28;;;2.20;;
18194;SDS011;9223;50.988;3.162;2023-01-01T00:12:14;5.20;;;2.30;;
18194;SDS011;9223;50.988;3.162;2023-01-01T00:18:17;9.60;;;5.43;;
18194;SDS011;9223;50.988;3.162;2023-01-01T00:24:24;10.02;;;4.95;;
18194;SDS011;9223;50.988;3.162;2023-01-01T00:30:28;16.08;;;6.63;;
18194;SDS011;9223;50.988;3.162;2023-01-01T00:36:31;13.93;;;6.35;;
18194;SDS011;9223;50.988;3.162;2023-01-01T00:42:36;11.75;;;5.78;;
18194;SDS011;9223;50.988;3.162;2023-01-01T00:48:41;11.85;;;5.65;;
18194;SDS011;9223;50.988;3.162;2023-01-01T00:54:45;10.73;;;6.22;;
18194;SDS011;9223;50.988;3.162;2023-01-01T01:00:50;10.65;;;4.93;;
18194;SDS011;9223;50.988;3.162;2023-01-01T01:06:54;11.77;;;4.35;;
18194;SDS011;9223;50.988;3.162;2023-01-01T01:12:57;11.38;;;4.47;;
18194;SDS011;9223;50.988;3.162;2023-01-01T01:19:03;8.25;;;2.88;;
18194;SDS011;9223;50.988;3.162;2023-01-01T01:25:07;10.45;;;5.03;;
18194;SDS011;9223;50.988;3.162;2023-01-01T01:31:11;7.07;;;3.25;;
18194;SDS011;9223;50.988;3.162;2023-01-01T01:37:16;6.25;;;3.13;;
18194;SDS011;9223;50.988;3.162;2023-01-01T01:43:20;7.90;;;3.58;;
18194;SDS011;9223;50.988;3.162;2023-01-01T01:49:26;10.23;;;3.88;;
18194;SDS011;9223;50.988;3.162;2023-01-01T01:55:32;7.60;;;4.30;;
18194;SDS011;9223;50.988;3.162;2023-01-01T02:01:36;6.70;;;4.20;;
18194;SDS011;9223;50.988;3.162;2023-01-01T02:07:39;5.97;;;2.67;;
18194;SDS011;9223;50.988;3.162;2023-01-01T02:13:44;4.97;;;3.05;;
18194;SDS011;9223;50.988;3.162;2023-01-01T02:19:53;6.05;;;3.00;;
18194;SDS011;9223;50.988;3.162;2023-01-01T02:26:16;7.88;;;2.80;;
18194;SDS011;9223;50.988;3.162;2023-01-01T02:32:22;6.20;;;3.40;;
18194;SDS011;9223;50.988;3.162;2023-01-01T02:38:28;6.07;;;3.20;;
18194;SDS011;9223;50.988;3.162;2023-01-01T02:44:33;6.07;;;3.17;;
18194;SDS011;9223;50.988;3.162;2023-01-01T02:50:39;4.10;;;2.53;;
18194;SDS011;9223;50.988;3.162;2023-01-01T02:56:43;5.10;;;2.35;;
18194;SDS011;9223;50.988;3.162;2023-01-01T03:02:52;5.53;;;2.05;;
18194;SDS011;9223;50.988;3.162;2023-01-01T03:09:00;4.65;;;2.40;;
18194;SDS011;9223;50.988;3.162;2023-01-01T03:15:08;5.53;;;2.40;;
18194;SDS011;9223;50.988;3.162;2023-01-01T03:21:14;3.92;;;2.50;;
18194;SDS011;9223;50.988;3.162;2023-01-01T03:27:19;3.70;;;1.88;;
18194;SDS011;9223;50.988;3.162;2023-01-01T03:33:26;5.82;;;3.05;;
18194;SDS011;9223;50.988;3.162;2023-01-01T03:39:33;5.47;;;2.17;;
18194;SDS011;9223;50.988;3.162;2023-01-01T03:45:39;5.05;;;2.10;;
18194;SDS011;9223;50.988;3.162;2023-01-01T03:51:49;5.15;;;1.70;;
18194;SDS011;9223;50.988;3.162;2023-01-01T03:57:56;2.88;;;1.33;;
18194;SDS011;9223;50.988;3.162;2023-01-01T04:04:04;5.78;;;1.63;;
18194;SDS011;9223;50.988;3.162;2023-01-01T04:10:08;4.32;;;1.00;;
18194;SDS011;9223;50.988;3.162;2023-01-01T04:16:18;6.72;;;1.80;;
18194;SDS011;9223;50.988;3.162;2023-01-01T04:22:23;2.65;;;0.90;;
18194;SDS011;9223;50.988;3.162;2023-01-01T04:28:26;3.15;;;0.93;;
18194;SDS011;9223;50.988;3.162;2023-01-01T04:34:30;2.20;;;0.82;;
18194;SDS011;9223;50.988;3.162;2023-01-01T04:40:35;1.60;;;0.95;;
18194;SDS011;9223;50.988;3.162;2023-01-01T04:46:38;4.25;;;1.10;;
18194;SDS011;9223;50.988;3.162;2023-01-01T04:52:42;5.40;;;1.10;;
18194;SDS011;9223;50.988;3.162;2023-01-01T04:58:47;2.47;;;1.20;;
18194;SDS011;9223;50.988;3.162;2023-01-01T05:04:51;5.20;;;1.30;;
18194;SDS011;9223;50.988;3.162;2023-01-01T05:10:58;3.53;;;0.90;;
18194;SDS011;9223;50.988;3.162;2023-01-01T05:17:03;5.22;;;1.55;;
18194;SDS011;9223;50.988;3.162;2023-01-01T05:23:06;6.10;;;1.58;;
18194;SDS011;9223;50.988;3.162;2023-01-01T05:29:10;3.10;;;1.10;;
18194;SDS011;9223;50.988;3.162;2023-01-01T05:35:19;3.85;;;1.30;;
18194;SDS011;9223;50.988;3.162;2023-01-01T05:41:27;7.45;;;1.77;;
18194;SDS011;9223;50.988;3.162;2023-01-01T05:47:31;2.13;;;0.93;;
18194;SDS011;9223;50.988;3.162;2023-01-01T05:53:36;6.53;;;1.08;;
18194;SDS011;9223;50.988;3.162;2023-01-01T05:59:39;2.75;;;1.00;;
18194;SDS011;9223;50.988;3.162;2023-01-01T06:05:43;4.13;;;1.13;;
18194;SDS011;9223;50.988;3.162;2023-01-01T06:11:48;5.03;;;0.95;;
18194;SDS011;9223;50.988;3.162;2023-01-01T06:17:51;2.53;;;1.00;;
18194;SDS011;9223;50.988;3.162;2023-01-01T06:23:55;4.78;;;1.60;;
18194;SDS011;9223;50.988;3.162;2023-01-01T06:30:00;3.85;;;1.00;;
18194;SDS011;9223;50.988;3.162;2023-01-01T06:36:05;4.90;;;0.95;;
18194;SDS011;9223;50.988;3.162;2023-01-01T06:42:08;3.00;;;0.90;;
18194;SDS011;9223;50.988;3.162;2023-01-01T06:48:13;1.60;;;0.73;;
18194;SDS011;9223;50.988;3.162;2023-01-01T06:54:16;2.50;;;1.23;;
18194;SDS011;9223;50.988;3.162;2023-01-01T07:00:20;6.32;;;1.48;;
18194;SDS011;9223;50.988;3.162;2023-01-01T07:06:26;5.30;;;1.40;;
18194;SDS011;9223;50.988;3.162;2023-01-01T07:12:29;8.00;;;1.90;;
18194;SDS011;9223;50.988;3.162;2023-01-01T07:18:33;7.88;;;1.55;;
18194;SDS011;9223;50.988;3.162;2023-01-01T07:24:38;4.75;;;1.45;;
18194;SDS011;9223;50.988;3.162;2023-01-01T07:30:41;4.47;;;0.95;;
18194;SDS011;9223;50.988;3.162;2023-01-01T07:36:45;4.13;;;1.25;;
18194;SDS011;9223;50.988;3.162;2023-01-01T07:42:49;4.07;;;1.08;;
18194;SDS011;9223;50.988;3.162;2023-01-01T07:48:53;3.53;;;1.02;;
18194;SDS011;9223;50.988;3.162;2023-01-01T07:54:56;4.07;;;1.42;;
18194;SDS011;9223;50.988;3.162;2023-01-01T08:01:01;3.97;;;1.33;;
18194;SDS011;9223;50.988;3.162;2023-01-01T08:07:05;4.65;;;1.58;;
18194;SDS011;9223;50.988;3.162;2023-01-01T08:13:08;4.05;;;1.65;;
18194;SDS011;9223;50.988;3.162;2023-01-01T08:19:13;5.40;;;1.20;;
18194;SDS011;9223;50.988;3.162;2023-01-01T08:25:17;4.75;;;1.20;;
18194;SDS011;9223;50.988;3.162;2023-01-01T08:31:20;5.82;;;1.95;;
18194;SDS011;9223;50.988;3.162;2023-01-01T08:37:25;3.28;;;1.75;;
18194;SDS011;9223;50.988;3.162;2023-01-01T08:43:29;4.97;;;1.88;;
18194;SDS011;9223;50.988;3.162;2023-01-01T08:49:32;7.13;;;1.85;;
18194;SDS011;9223;50.988;3.162;2023-01-01T08:55:37;8.27;;;2.03;;
18194;SDS011;9223;50.988;3.162;2023-01-01T09:01:40;3.05;;;1.33;;
18194;SDS011;9223;50.988;3.162;2023-01-01T09:07:44;5.25;;;1.52;;
18194;SDS011;9223;50.988;3.162;2023-01-01T09:13:49;3.20;;;1.40;;
18194;SDS011;9223;50.988;3.162;2023-01-01T09:19:52;7.05;;;1.95;;
18194;SDS011;9223;50.988;3.162;2023-01-01T09:25:56;11.68;;;1.88;;
18194;SDS011;9223;50.988;3.162;2023-01-01T09:32:05;3.45;;;1.55;;
18194;SDS011;9223;50.988;3.162;2023-01-01T09:38:08;4.88;;;2.08;;
18194;SDS011;9223;50.988;3.162;2023-01-01T09:44:16;8.25;;;2.15;;
18194;SDS011;9223;50.988;3.162;2023-01-01T09:50:26;5.63;;;1.17;;
18194;SDS011;9223;50.988;3.162;2023-01-01T09:56:31;5.28;;;1.88;;
18194;SDS011;9223;50.988;3.162;2023-01-01T10:02:39;5.57;;;1.63;;
18194;SDS011;9223;50.988;3.162;2023-01-01T10:09:00;4.85;;;1.10;;
18194;SDS011;9223;50.988;3.162;2023-01-01T10:15:09;4.97;;;1.20;;
18194;SDS011;9223;50.988;3.162;2023-01-01T10:21:15;2.42;;;0.90;;
18194;SDS011;9223;50.988;3.162;2023-01-01T10:27:27;3.00;;;1.00;;
18194;SDS011;9223;50.988;3.162;2023-01-01T10:33:33;6.07;;;1.48;;
18194;SDS011;9223;50.988;3.162;2023-01-01T10:39:36;6.35;;;1.65;;
18194;SDS011;9223;50.988;3.162;2023-01-01T10:45:42;5.78;;;1.52;;
18194;SDS011;9223;50.988;3.162;2023-01-01T10:51:46;6.07;;;1.75;;
18194;SDS011;9223;50.988;3.162;2023-01-01T10:57:50;5.55;;;1.38;;
18194;SDS011;9223;50.988;3.162;2023-01-01T11:03:57;4.68;;;1.67;;
18194;SDS011;9223;50.988;3.162;2023-01-01T11:10:02;4.30;;;1.48;;
18194;SDS011;9223;50.988;3.162;2023-01-01T11:16:08;4.18;;;1.27;;
18194;SDS011;9223;50.988;3.162;2023-01-01T11:22:16;6.45;;;2.20;;
18194;SDS011;9223;50.988;3.162;2023-01-01T11:28:37;7.18;;;1.98;;
18194;SDS011;9223;50.988;3.162;2023-01-01T11:34:41;4.38;;;1.52;;
18194;SDS011;9223;50.988;3.162;2023-01-01T11:40:47;6.22;;;2.00;;
18194;SDS011;9223;50.988;3.162;2023-01-01T11:46:51;6.90;;;1.58;;
18194;SDS011;9223;50.988;3.162;2023-01-01T11:52:55;8.43;;;2.00;;
18194;SDS011;9223;50.988;3.162;2023-01-01T11:59:02;7.93;;;1.70;;
18194;SDS011;9223;50.988;3.162;2023-01-01T12:05:08;4.22;;;1.73;;
18194;SDS011;9223;50.988;3.162;2023-01-01T12:11:16;7.10;;;1.70;;
18194;SDS011;9223;50.988;3.162;2023-01-01T12:17:23;3.80;;;1.45;;
18194;SDS011;9223;50.988;3.162;2023-01-01T12:23:28;7.43;;;2.53;;
18194;SDS011;9223;50.988;3.162;2023-01-01T12:35:59;7.30;;;2.08;;
18194;SDS011;9223;50.988;3.162;2023-01-01T12:42:04;7.15;;;2.00;;
18194;SDS011;9223;50.988;3.162;2023-01-01T12:48:17;4.90;;;1.83;;
18194;SDS011;9223;50.988;3.162;2023-01-01T12:54:33;9.57;;;2.88;;
18194;SDS011;9223;50.988;3.162;2023-01-01T13:00:38;10.02;;;2.70;;
18194;SDS011;9223;50.988;3.162;2023-01-01T13:06:42;9.30;;;2.58;;
18194;SDS011;9223;50.988;3.162;2023-01-01T13:12:49;7.68;;;2.05;;
18194;SDS011;9223;50.988;3.162;2023-01-01T13:18:53;6.57;;;2.88;;
18194;SDS011;9223;50.988;3.162;2023-01-01T13:25:04;6.95;;;2.00;;
18194;SDS011;9223;50.988;3.162;2023-01-01T13:31:09;5.28;;;2.63;;
18194;SDS011;9223;50.988;3.162;2023-01-01T13:37:39;7.90;;;2.75;;
18194;SDS011;9223;50.988;3.162;2023-01-01T13:43:44;12.32;;;5.50;;
18194;SDS011;9223;50.988;3.162;2023-01-01T13:49:55;6.63;;;3.42;;
18194;SDS011;9223;50.988;3.162;2023-01-01T14:02:20;12.55;;;3.80;;
18194;SDS011;9223;50.988;3.162;2023-01-01T14:08:28;11.10;;;2.72;;
18194;SDS011;9223;50.988;3.162;2023-01-01T14:14:31;7.85;;;2.55;;
18194;SDS011;9223;50.988;3.162;2023-01-01T14:20:38;12.82;;;2.85;;
18194;SDS011;9223;50.988;3.162;2023-01-01T14:26:44;9.55;;;2.53;;
18194;SDS011;9223;50.988;3.162;2023-01-01T14:32:54;7.53;;;2.55;;
18194;SDS011;9223;50.988;3.162;2023-01-01T14:38:58;10.30;;;3.28;;
18194;SDS011;9223;50.988;3.162;2023-01-01T14:45:03;9.98;;;4.25;;
18194;SDS011;9223;50.988;3.162;2023-01-01T14:51:07;10.93;;;3.47;;
18194;SDS011;9223;50.988;3.162;2023-01-01T14:57:15;11.07;;;3.63;;
18194;SDS011;9223;50.988;3.162;2023-01-01T15:03:21;11.95;;;4.25;;
18194;SDS011;9223;50.988;3.162;2023-01-01T15:09:25;16.55;;;6.25;;
18194;SDS011;9223;50.988;3.162;2023-01-01T15:15:35;9.45;;;3.78;;
18194;SDS011;9223;50.988;3.162;2023-01-01T15:21:41;10.27;;;3.95;;
18194;SDS011;9223;50.988;3.162;2023-01-01T15:27:46;18.48;;;8.77;;
18194;SDS011;9223;50.988;3.162;2023-01-01T15:33:50;12.38;;;6.18;;
18194;SDS011;9223;50.988;3.162;2023-01-01T15:39:56;20.90;;;8.25;;
18194;SDS011;9223;50.988;3.162;2023-01-01T15:46:09;20.67;;;8.77;;
18194;SDS011;9223;50.988;3.162;2023-01-01T15:52:14;9.90;;;4.50;;
18194;SDS011;9223;50.988;3.162;2023-01-01T15:58:20;11.50;;;4.88;;
18194;SDS011;9223;50.988;3.162;2023-01-01T16:04:25;12.50;;;6.13;;
18194;SDS011;9223;50.988;3.162;2023-01-01T16:10:30;11.93;;;5.93;;
18194;SDS011;9223;50.988;3.162;2023-01-01T16:16:35;7.15;;;4.03;;
18194;SDS011;9223;50.988;3.162;2023-01-01T16:22:39;6.05;;;2.63;;
18194;SDS011;9223;50.988;3.162;2023-01-01T16:28:42;4.60;;;2.78;;
18194;SDS011;9223;50.988;3.162;2023-01-01T16:34:47;9.20;;;4.00;;
18194;SDS011;9223;50.988;3.162;2023-01-01T16:40:51;13.77;;;5.95;;
18194;SDS011;9223;50.988;3.162;2023-01-01T16:46:54;10.77;;;4.38;;
18194;SDS011;9223;50.988;3.162;2023-01-01T16:53:00;24.70;;;9.02;;
18194;SDS011;9223;50.988;3.162;2023-01-01T16:59:04;8.13;;;4.55;;
18194;SDS011;9223;50.988;3.162;2023-01-01T17:05:08;6.68;;;3.17;;
18194;SDS011;9223;50.988;3.162;2023-01-01T17:11:13;6.20;;;3.60;;
18194;SDS011;9223;50.988;3.162;2023-01-01T17:17:17;7.65;;;3.60;;
18194;SDS011;9223;50.988;3.162;2023-01-01T17:23:20;6.43;;;3.92;;
18194;SDS011;9223;50.988;3.162;2023-01-01T17:29:25;5.47;;;3.40;;
18194;SDS011;9223;50.988;3.162;2023-01-01T17:35:29;8.18;;;3.30;;
18194;SDS011;9223;50.988;3.162;2023-01-01T17:41:33;6.45;;;3.85;;
18194;SDS011;9223;50.988;3.162;2023-01-01T17:47:39;6.97;;;3.58;;
18194;SDS011;9223;50.988;3.162;2023-01-01T17:53:43;11.43;;;4.68;;
18194;SDS011;9223;50.988;3.162;2023-01-01T17:59:46;7.20;;;3.80;;
18194;SDS011;9223;50.988;3.162;2023-01-01T18:05:55;3.83;;;3.42;;
18194;SDS011;9223;50.988;3.162;2023-01-01T18:11:58;5.05;;;3.72;;
18194;SDS011;9223;50.988;3.162;2023-01-01T18:18:02;4.65;;;3.50;;
18194;SDS011;9223;50.988;3.162;2023-01-01T18:24:08;4.63;;;3.03;;
18194;SDS011;9223;50.988;3.162;2023-01-01T18:30:13;6.75;;;3.17;;
18194;SDS011;9223;50.988;3.162;2023-01-01T18:36:17;4.53;;;3.10;;
18194;SDS011;9223;50.988;3.162;2023-01-01T18:48:41;5.13;;;3.03;;
18194;SDS011;9223;50.988;3.162;2023-01-01T18:54:45;5.63;;;3.63;;
18194;SDS011;9223;50.988;3.162;2023-01-01T19:00:48;6.18;;;3.70;;
18194;SDS011;9223;50.988;3.162;2023-01-01T19:06:53;20.42;;;8.35;;
18194;SDS011;9223;50.988;3.162;2023-01-01T19:12:57;13.27;;;6.60;;
18194;SDS011;9223;50.988;3.162;2023-01-01T19:19:07;8.63;;;4.32;;
18194;SDS011;9223;50.988;3.162;2023-01-01T19:25:31;28.15;;;11.00;;
18194;SDS011;9223;50.988;3.162;2023-01-01T19:31:35;12.02;;;5.45;;
18194;SDS011;9223;50.988;3.162;2023-01-01T19:37:38;7.40;;;4.45;;
18194;SDS011;9223;50.988;3.162;2023-01-01T19:43:43;7.28;;;4.55;;
18194;SDS011;9223;50.988;3.162;2023-01-01T19:49:46;11.73;;;6.60;;
18194;SDS011;9223;50.988;3.162;2023-01-01T19:55:55;12.55;;;6.47;;
18194;SDS011;9223;50.988;3.162;2023-01-01T20:02:00;14.43;;;6.68;;
18194;SDS011;9223;50.988;3.162;2023-01-01T20:08:24;14.18;;;8.02;;
18194;SDS011;9223;50.988;3.162;2023-01-01T20:14:28;11.93;;;6.90;;
18194;SDS011;9223;50.988;3.162;2023-01-01T20:20:33;13.15;;;6.68;;
18194;SDS011;9223;50.988;3.162;2023-01-01T20:26:37;18.95;;;7.70;;
18194;SDS011;9223;50.988;3.162;2023-01-01T20:32:40;13.00;;;6.35;;
18194;SDS011;9223;50.988;3.162;2023-01-01T20:38:45;12.55;;;6.38;;
18194;SDS011;9223;50.988;3.162;2023-01-01T20:44:49;7.80;;;5.07;;
18194;SDS011;9223;50.988;3.162;2023-01-01T20:50:52;8.85;;;5.65;;
18194;SDS011;9223;50.988;3.162;2023-01-01T20:56:57;9.05;;;5.57;;
18194;SDS011;9223;50.988;3.162;2023-01-01T21:03:00;8.15;;;4.80;;
18194;SDS011;9223;50.988;3.162;2023-01-01T21:09:04;9.55;;;6.15;;
18194;SDS011;9223;50.988;3.162;2023-01-01T21:15:12;8.98;;;5.32;;
18194;SDS011;9223;50.988;3.162;2023-01-01T21:21:17;11.73;;;5.78;;
18194;SDS011;9223;50.988;3.162;2023-01-01T21:27:23;7.10;;;4.43;;
18194;SDS011;9223;50.988;3.162;2023-01-01T21:33:29;8.93;;;6.10;;
18194;SDS011;9223;50.988;3.162;2023-01-01T21:39:33;9.15;;;5.60;;
18194;SDS011;9223;50.988;3.162;2023-01-01T21:45:37;14.35;;;6.28;;
18194;SDS011;9223;50.988;3.162;2023-01-01T21:51:44;12.05;;;5.97;;
18194;SDS011;9223;50.988;3.162;2023-01-01T21:57:49;12.27;;;5.88;;
18194;SDS011;9223;50.988;3.162;2023-01-01T22:04:21;10.30;;;5.65;;
18194;SDS011;9223;50.988;3.162;2023-01-01T22:10:28;13.85;;;6.55;;
18194;SDS011;9223;50.988;3.162;2023-01-01T22:16:34;16.35;;;7.93;;
18194;SDS011;9223;50.988;3.162;2023-01-01T22:22:37;10.43;;;6.20;;
18194;SDS011;9223;50.988;3.162;2023-01-01T22:28:42;10.90;;;6.28;;
18194;SDS011;9223;50.988;3.162;2023-01-01T22:34:46;8.77;;;5.07;;
18194;SDS011;9223;50.988;3.162;2023-01-01T22:40:50;9.48;;;5.97;;
18194;SDS011;9223;50.988;3.162;2023-01-01T22:46:55;7.35;;;5.18;;
18194;SDS011;9223;50.988;3.162;2023-01-01T22:53:01;9.43;;;5.25;;
18194;SDS011;9223;50.988;3.162;2023-01-01T22:59:05;9.02;;;5.85;;
18194;SDS011;9223;50.988;3.162;2023-01-01T23:05:10;9.00;;;4.82;;
18194;SDS011;9223;50.988;3.162;2023-01-01T23:11:13;8.00;;;5.00;;
18194;SDS011;9223;50.988;3.162;2023-01-01T23:17:17;8.68;;;5.03;;
18194;SDS011;9223;50.988;3.162;2023-01-01T23:23:22;9.32;;;5.53;;
18194;SDS011;9223;50.988;3.162;2023-01-01T23:29:26;8.90;;;5.40;;
18194;SDS011;9223;50.988;3.162;2023-01-01T23:35:31;8.60;;;5.18;;
18194;SDS011;9223;50.988;3.162;2023-01-01T23:41:35;7.90;;;5.13;;
18194;SDS011;9223;50.988;3.162;2023-01-01T23:47:39;7.20;;;5.00;;
18194;SDS011;9223;50.988;3.162;2023-01-01T23:53:42;8.15;;;5.22;;
18194;SDS011;9223;50.988;3.162;2023-01-01T23:59:47;6.47;;;5.28;;
